Aérodrome :
LOGIN :

S'inscrire | Disclaimer

   EN    FR    IT 

 










Légende :    VFR   VFR Marginal   IFR   IFR Intensif   IFR Très Intensif
Visi : 
Plafond : 
>= 8 km
>= 3000ft
5 à 8 km
1000 à 3000 ft
1500m à 5 km
500 à 1000 ft
800 à 1500m
200 à 500 ft
< 800m
< 200 ft
Symboles :   Orages  Brouillard  Fortes neiges  Fortes précipitations  Vent > 20 kt
SIGMETs :   Divers  Orages  Givrage  Turbulence  Onde Orograph.  Cendres Volcan.







- Altitude de l'aérodrome : 13 ft
- Code IATA : OST


EBOS - Oostend bruges Int.

DERNIER METAR :
  • 181050Z 02009KT 340V060 9999 FEW038 SCT048 17/06 Q1029 NOSIG

METARs EXPIRÉS :
  • 181020Z 01008KT 340V050 9999 FEW038 SCT048 17/06 Q1029 NOSIG
  • 180950Z 03007KT 350V070 9999 FEW035 SCT048 17/06 Q1029 NOSIG
  • 180920Z 04007KT 360V140 9999 FEW035 SCT048 17/06 Q1029 NOSIG
  • 180850Z VRB02KT 9999 FEW035 SCT048 16/08 Q1029 NOSIG
  • 180820Z VRB02KT 9999 FEW030 SCT045 15/08 Q1029 NOSIG

TAF TAF EBOS
Valide du 18 à 06h jusqu'au 19 à 12h UTC


180520Z 1806/1912 01008KT 9999 FEW034
Pas de NOTAMs connus pour ce terrain.



MET'MAP, la Météo Aéronautique d'un coup d'oeil ! - Copyright ORBIFLY Décembre 2007 - Disclaimer

ORBIFLY MET'MAP TEAM :

Programmation & Développement : Alexandra Zaïnal
Conception & Développement : Baudouin d'Aumeries
Co-Programmation & Développement : Marc-Olivier Méhu
Soutien technique & logistique : Manuel Goepfert

Contact : metmap@orbifly.com




SOURCES & CREDITS :

   NOAA